Arvada, Colorado
Current Conditions -  °F | °C
As of 2:16 AM on Wednesday 28 Jan 2015 (Local Time) from KBJC Reporting Station
Clear Clear  
Wind Chill: 54°   Ceiling: Unl
Heat Index: 54°   Visibility: 10mi
Dew Point: 23°   Wind: 22mph
Humidity: 30%   Direction: 250°WSW
Pressure: 30.01"   Gusts: 33mph
Location:  39.8°N, 105.08°W
Report Text: KBJC 280916Z AUTO 25019G29KT 10SM CLR 12/M05 A3001 RMK AO2
Loading
Personal Weather Stations






























Interactive Weather Map New forecast layout! Learn more

10-Day Weather Forecast

Advertisements
Track Severe Weather on mobile